sensor_id;sensor_type;location;lat;lon;timestamp;P1;durP1;ratioP1;P2;durP2;ratioP2
22160;SDS011;49035;48.812;11.762;2023-07-16T00:01:58;5.75;;;3.03;;
22160;SDS011;49035;48.812;11.762;2023-07-16T00:04:24;5.50;;;3.80;;
22160;SDS011;49035;48.812;11.762;2023-07-16T00:06:49;5.53;;;3.55;;
22160;SDS011;49035;48.812;11.762;2023-07-16T00:09:15;4.07;;;3.22;;
22160;SDS011;49035;48.812;11.762;2023-07-16T00:11:41;7.80;;;3.45;;
22160;SDS011;49035;48.812;11.762;2023-07-16T00:14:07;4.32;;;3.92;;
22160;SDS011;49035;48.812;11.762;2023-07-16T00:16:32;8.77;;;4.00;;
22160;SDS011;49035;48.812;11.762;2023-07-16T00:18:58;8.32;;;4.18;;
22160;SDS011;49035;48.812;11.762;2023-07-16T00:21:23;8.48;;;4.60;;
22160;SDS011;49035;48.812;11.762;2023-07-16T00:23:49;6.45;;;4.03;;
22160;SDS011;49035;48.812;11.762;2023-07-16T00:26:15;14.48;;;5.15;;
22160;SDS011;49035;48.812;11.762;2023-07-16T00:28:41;7.70;;;5.07;;
22160;SDS011;49035;48.812;11.762;2023-07-16T00:31:06;6.82;;;4.90;;
22160;SDS011;49035;48.812;11.762;2023-07-16T00:33:32;6.47;;;5.05;;
22160;SDS011;49035;48.812;11.762;2023-07-16T00:35:57;7.75;;;5.28;;
22160;SDS011;49035;48.812;11.762;2023-07-16T00:38:23;7.47;;;6.00;;
22160;SDS011;49035;48.812;11.762;2023-07-16T00:40:48;7.88;;;5.63;;
22160;SDS011;49035;48.812;11.762;2023-07-16T00:43:14;7.63;;;6.00;;
22160;SDS011;49035;48.812;11.762;2023-07-16T00:45:40;8.57;;;5.97;;
22160;SDS011;49035;48.812;11.762;2023-07-16T00:48:07;8.68;;;6.90;;
22160;SDS011;49035;48.812;11.762;2023-07-16T00:50:33;9.00;;;6.75;;
22160;SDS011;49035;48.812;11.762;2023-07-16T00:53:04;9.18;;;7.03;;
22160;SDS011;49035;48.812;11.762;2023-07-16T00:55:33;7.88;;;7.07;;
22160;SDS011;49035;48.812;11.762;2023-07-16T00:58:02;7.82;;;6.07;;
22160;SDS011;49035;48.812;11.762;2023-07-16T01:00:33;16.00;;;7.35;;
22160;SDS011;49035;48.812;11.762;2023-07-16T01:03:03;11.90;;;6.85;;
22160;SDS011;49035;48.812;11.762;2023-07-16T01:05:47;14.90;;;7.28;;
22160;SDS011;49035;48.812;11.762;2023-07-16T01:08:16;11.48;;;7.00;;
22160;SDS011;49035;48.812;11.762;2023-07-16T01:10:51;11.35;;;7.78;;
22160;SDS011;49035;48.812;11.762;2023-07-16T01:13:18;8.48;;;6.72;;
22160;SDS011;49035;48.812;11.762;2023-07-16T01:15:44;11.65;;;6.85;;
22160;SDS011;49035;48.812;11.762;2023-07-16T01:18:10;10.77;;;7.70;;
22160;SDS011;49035;48.812;11.762;2023-07-16T01:20:35;9.25;;;7.50;;
22160;SDS011;49035;48.812;11.762;2023-07-16T01:23:14;12.93;;;7.60;;
22160;SDS011;49035;48.812;11.762;2023-07-16T01:25:52;11.82;;;6.88;;
22160;SDS011;49035;48.812;11.762;2023-07-16T01:30:54;8.88;;;6.85;;
22160;SDS011;49035;48.812;11.762;2023-07-16T01:33:23;12.30;;;6.88;;
22160;SDS011;49035;48.812;11.762;2023-07-16T01:35:49;12.63;;;7.78;;
22160;SDS011;49035;48.812;11.762;2023-07-16T01:38:16;10.30;;;7.05;;
22160;SDS011;49035;48.812;11.762;2023-07-16T01:40:43;12.25;;;8.23;;
22160;SDS011;49035;48.812;11.762;2023-07-16T01:43:09;13.20;;;8.52;;
22160;SDS011;49035;48.812;11.762;2023-07-16T01:45:35;11.00;;;8.25;;
22160;SDS011;49035;48.812;11.762;2023-07-16T01:48:05;13.82;;;8.13;;
22160;SDS011;49035;48.812;11.762;2023-07-16T01:50:36;12.88;;;7.65;;
22160;SDS011;49035;48.812;11.762;2023-07-16T01:53:02;10.70;;;7.40;;
22160;SDS011;49035;48.812;11.762;2023-07-16T01:55:27;8.82;;;7.45;;
22160;SDS011;49035;48.812;11.762;2023-07-16T01:57:53;10.13;;;7.18;;
22160;SDS011;49035;48.812;11.762;2023-07-16T02:00:18;9.82;;;7.65;;
22160;SDS011;49035;48.812;11.762;2023-07-16T02:02:45;11.27;;;7.55;;
22160;SDS011;49035;48.812;11.762;2023-07-16T02:05:10;7.88;;;6.78;;
22160;SDS011;49035;48.812;11.762;2023-07-16T02:07:36;11.65;;;7.55;;
22160;SDS011;49035;48.812;11.762;2023-07-16T02:10:01;11.52;;;7.45;;
22160;SDS011;49035;48.812;11.762;2023-07-16T02:12:27;15.48;;;7.55;;
22160;SDS011;49035;48.812;11.762;2023-07-16T02:14:53;9.75;;;7.13;;
22160;SDS011;49035;48.812;11.762;2023-07-16T02:17:18;11.05;;;6.88;;
22160;SDS011;49035;48.812;11.762;2023-07-16T02:19:44;8.90;;;6.95;;
22160;SDS011;49035;48.812;11.762;2023-07-16T02:22:09;9.55;;;6.60;;
22160;SDS011;49035;48.812;11.762;2023-07-16T02:24:35;8.52;;;6.65;;
22160;SDS011;49035;48.812;11.762;2023-07-16T02:27:01;9.15;;;6.45;;
22160;SDS011;49035;48.812;11.762;2023-07-16T02:29:27;13.02;;;7.70;;
22160;SDS011;49035;48.812;11.762;2023-07-16T02:31:52;13.00;;;7.53;;
22160;SDS011;49035;48.812;11.762;2023-07-16T02:34:18;10.52;;;7.07;;
22160;SDS011;49035;48.812;11.762;2023-07-16T02:36:43;8.27;;;7.05;;
22160;SDS011;49035;48.812;11.762;2023-07-16T02:39:09;8.98;;;7.47;;
22160;SDS011;49035;48.812;11.762;2023-07-16T02:41:35;12.85;;;7.82;;
22160;SDS011;49035;48.812;11.762;2023-07-16T02:44:01;12.48;;;8.07;;
22160;SDS011;49035;48.812;11.762;2023-07-16T02:46:28;11.00;;;7.57;;
22160;SDS011;49035;48.812;11.762;2023-07-16T02:48:54;10.95;;;7.38;;
22160;SDS011;49035;48.812;11.762;2023-07-16T02:51:20;13.93;;;7.68;;
22160;SDS011;49035;48.812;11.762;2023-07-16T02:53:45;9.65;;;6.93;;
22160;SDS011;49035;48.812;11.762;2023-07-16T02:56:11;10.18;;;7.25;;
22160;SDS011;49035;48.812;11.762;2023-07-16T02:58:36;7.97;;;6.22;;
22160;SDS011;49035;48.812;11.762;2023-07-16T03:01:02;9.00;;;5.82;;
22160;SDS011;49035;48.812;11.762;2023-07-16T03:03:28;8.27;;;5.97;;
22160;SDS011;49035;48.812;11.762;2023-07-16T03:05:53;9.32;;;6.20;;
22160;SDS011;49035;48.812;11.762;2023-07-16T03:08:19;9.02;;;5.45;;
22160;SDS011;49035;48.812;11.762;2023-07-16T03:10:45;8.40;;;5.65;;
22160;SDS011;49035;48.812;11.762;2023-07-16T03:13:10;5.22;;;3.67;;
22160;SDS011;49035;48.812;11.762;2023-07-16T03:15:36;6.63;;;4.30;;
22160;SDS011;49035;48.812;11.762;2023-07-16T03:18:01;7.45;;;4.03;;
22160;SDS011;49035;48.812;11.762;2023-07-16T03:20:27;7.90;;;3.92;;
22160;SDS011;49035;48.812;11.762;2023-07-16T03:22:52;5.53;;;4.10;;
22160;SDS011;49035;48.812;11.762;2023-07-16T03:25:18;5.18;;;4.00;;
22160;SDS011;49035;48.812;11.762;2023-07-16T03:27:44;6.22;;;3.78;;
22160;SDS011;49035;48.812;11.762;2023-07-16T03:30:09;5.07;;;3.08;;
22160;SDS011;49035;48.812;11.762;2023-07-16T03:32:35;3.85;;;3.15;;
22160;SDS011;49035;48.812;11.762;2023-07-16T03:35:00;4.82;;;2.92;;
22160;SDS011;49035;48.812;11.762;2023-07-16T03:37:26;5.20;;;2.65;;
22160;SDS011;49035;48.812;11.762;2023-07-16T03:39:51;4.93;;;2.53;;
22160;SDS011;49035;48.812;11.762;2023-07-16T03:42:17;3.70;;;2.47;;
22160;SDS011;49035;48.812;11.762;2023-07-16T03:44:43;5.40;;;2.70;;
22160;SDS011;49035;48.812;11.762;2023-07-16T03:47:09;3.38;;;2.72;;
22160;SDS011;49035;48.812;11.762;2023-07-16T03:49:35;5.28;;;3.00;;
22160;SDS011;49035;48.812;11.762;2023-07-16T03:52:00;4.07;;;3.10;;
22160;SDS011;49035;48.812;11.762;2023-07-16T03:54:26;4.22;;;3.50;;
22160;SDS011;49035;48.812;11.762;2023-07-16T03:56:51;5.18;;;3.67;;
22160;SDS011;49035;48.812;11.762;2023-07-16T03:59:17;4.03;;;3.58;;
22160;SDS011;49035;48.812;11.762;2023-07-16T04:01:42;4.32;;;3.35;;
22160;SDS011;49035;48.812;11.762;2023-07-16T04:04:08;6.53;;;4.50;;
22160;SDS011;49035;48.812;11.762;2023-07-16T04:06:34;6.57;;;3.85;;
22160;SDS011;49035;48.812;11.762;2023-07-16T04:08:59;6.20;;;3.65;;
22160;SDS011;49035;48.812;11.762;2023-07-16T04:11:25;5.05;;;3.95;;
22160;SDS011;49035;48.812;11.762;2023-07-16T04:13:50;5.90;;;3.80;;
22160;SDS011;49035;48.812;11.762;2023-07-16T04:16:16;4.32;;;3.90;;
22160;SDS011;49035;48.812;11.762;2023-07-16T04:18:41;4.60;;;3.97;;
22160;SDS011;49035;48.812;11.762;2023-07-16T04:21:07;4.53;;;3.67;;
22160;SDS011;49035;48.812;11.762;2023-07-16T04:23:32;6.63;;;3.72;;
22160;SDS011;49035;48.812;11.762;2023-07-16T04:25:58;5.30;;;4.03;;
22160;SDS011;49035;48.812;11.762;2023-07-16T04:28:23;6.25;;;3.80;;
22160;SDS011;49035;48.812;11.762;2023-07-16T04:30:49;4.53;;;3.58;;
22160;SDS011;49035;48.812;11.762;2023-07-16T04:33:15;4.65;;;3.88;;
22160;SDS011;49035;48.812;11.762;2023-07-16T04:35:40;6.20;;;3.90;;
22160;SDS011;49035;48.812;11.762;2023-07-16T04:38:06;6.85;;;4.13;;
22160;SDS011;49035;48.812;11.762;2023-07-16T04:40:33;5.70;;;4.07;;
22160;SDS011;49035;48.812;11.762;2023-07-16T04:42:58;4.10;;;3.70;;
22160;SDS011;49035;48.812;11.762;2023-07-16T04:45:24;5.10;;;3.83;;
22160;SDS011;49035;48.812;11.762;2023-07-16T04:47:49;7.88;;;4.32;;
22160;SDS011;49035;48.812;11.762;2023-07-16T04:50:15;6.22;;;3.92;;
22160;SDS011;49035;48.812;11.762;2023-07-16T04:52:41;7.63;;;4.65;;
22160;SDS011;49035;48.812;11.762;2023-07-16T04:55:06;8.02;;;4.88;;
22160;SDS011;49035;48.812;11.762;2023-07-16T04:57:32;7.57;;;4.63;;
22160;SDS011;49035;48.812;11.762;2023-07-16T04:59:58;6.93;;;4.80;;
22160;SDS011;49035;48.812;11.762;2023-07-16T05:02:24;6.25;;;4.68;;
22160;SDS011;49035;48.812;11.762;2023-07-16T05:04:49;10.38;;;4.60;;
22160;SDS011;49035;48.812;11.762;2023-07-16T05:07:15;7.65;;;3.67;;
22160;SDS011;49035;48.812;11.762;2023-07-16T05:09:42;5.18;;;3.80;;
22160;SDS011;49035;48.812;11.762;2023-07-16T05:12:08;4.68;;;3.50;;
22160;SDS011;49035;48.812;11.762;2023-07-16T05:14:42;5.78;;;3.50;;
22160;SDS011;49035;48.812;11.762;2023-07-16T05:17:10;8.48;;;3.50;;
22160;SDS011;49035;48.812;11.762;2023-07-16T05:19:36;3.33;;;3.00;;
22160;SDS011;49035;48.812;11.762;2023-07-16T05:22:01;6.72;;;3.60;;
22160;SDS011;49035;48.812;11.762;2023-07-16T05:24:27;4.57;;;3.70;;
22160;SDS011;49035;48.812;11.762;2023-07-16T05:26:53;4.47;;;3.67;;
22160;SDS011;49035;48.812;11.762;2023-07-16T05:29:19;4.32;;;3.70;;
22160;SDS011;49035;48.812;11.762;2023-07-16T05:31:45;5.35;;;3.90;;
22160;SDS011;49035;48.812;11.762;2023-07-16T05:34:11;5.07;;;3.70;;
22160;SDS011;49035;48.812;11.762;2023-07-16T05:36:37;6.93;;;3.63;;
22160;SDS011;49035;48.812;11.762;2023-07-16T05:39:02;4.40;;;3.97;;
22160;SDS011;49035;48.812;11.762;2023-07-16T05:41:28;7.13;;;3.97;;
22160;SDS011;49035;48.812;11.762;2023-07-16T05:43:53;6.00;;;3.45;;
22160;SDS011;49035;48.812;11.762;2023-07-16T05:46:19;5.07;;;3.50;;
22160;SDS011;49035;48.812;11.762;2023-07-16T05:48:44;5.03;;;3.53;;
22160;SDS011;49035;48.812;11.762;2023-07-16T05:51:10;5.82;;;3.22;;
22160;SDS011;49035;48.812;11.762;2023-07-16T05:53:36;2.90;;;2.60;;
22160;SDS011;49035;48.812;11.762;2023-07-16T05:56:01;3.63;;;2.70;;
22160;SDS011;49035;48.812;11.762;2023-07-16T05:58:28;2.80;;;2.40;;
22160;SDS011;49035;48.812;11.762;2023-07-16T06:00:54;2.42;;;2.22;;
22160;SDS011;49035;48.812;11.762;2023-07-16T06:03:19;3.53;;;2.80;;
22160;SDS011;49035;48.812;11.762;2023-07-16T06:05:45;2.90;;;2.42;;
22160;SDS011;49035;48.812;11.762;2023-07-16T06:08:11;3.22;;;2.45;;
22160;SDS011;49035;48.812;11.762;2023-07-16T06:10:37;5.45;;;2.70;;
22160;SDS011;49035;48.812;11.762;2023-07-16T06:13:03;2.35;;;2.13;;
22160;SDS011;49035;48.812;11.762;2023-07-16T06:15:29;3.05;;;2.75;;
22160;SDS011;49035;48.812;11.762;2023-07-16T06:17:55;5.20;;;2.60;;
22160;SDS011;49035;48.812;11.762;2023-07-16T06:20:20;2.75;;;2.30;;
22160;SDS011;49035;48.812;11.762;2023-07-16T06:22:46;4.20;;;2.42;;
22160;SDS011;49035;48.812;11.762;2023-07-16T06:25:11;14.38;;;2.40;;
22160;SDS011;49035;48.812;11.762;2023-07-16T06:27:37;6.63;;;2.75;;
22160;SDS011;49035;48.812;11.762;2023-07-16T06:30:03;4.13;;;2.58;;
22160;SDS011;49035;48.812;11.762;2023-07-16T06:32:30;3.65;;;2.60;;
22160;SDS011;49035;48.812;11.762;2023-07-16T06:34:56;2.83;;;2.17;;
22160;SDS011;49035;48.812;11.762;2023-07-16T06:37:22;4.70;;;2.63;;
22160;SDS011;49035;48.812;11.762;2023-07-16T06:39:48;3.58;;;2.30;;
22160;SDS011;49035;48.812;11.762;2023-07-16T06:42:14;2.63;;;2.40;;
22160;SDS011;49035;48.812;11.762;2023-07-16T06:44:40;4.10;;;2.25;;
22160;SDS011;49035;48.812;11.762;2023-07-16T06:47:05;2.25;;;2.05;;
22160;SDS011;49035;48.812;11.762;2023-07-16T06:49:31;5.60;;;2.58;;
22160;SDS011;49035;48.812;11.762;2023-07-16T06:51:57;3.88;;;2.10;;
22160;SDS011;49035;48.812;11.762;2023-07-16T06:54:22;3.05;;;2.35;;
22160;SDS011;49035;48.812;11.762;2023-07-16T06:56:48;2.53;;;2.33;;
22160;SDS011;49035;48.812;11.762;2023-07-16T06:59:13;2.88;;;2.45;;
22160;SDS011;49035;48.812;11.762;2023-07-16T07:01:39;3.10;;;1.90;;
22160;SDS011;49035;48.812;11.762;2023-07-16T07:04:04;3.85;;;2.15;;
22160;SDS011;49035;48.812;11.762;2023-07-16T07:06:30;2.45;;;2.08;;
22160;SDS011;49035;48.812;11.762;2023-07-16T07:08:55;5.07;;;1.63;;
22160;SDS011;49035;48.812;11.762;2023-07-16T07:11:21;3.05;;;2.05;;
22160;SDS011;49035;48.812;11.762;2023-07-16T07:13:47;2.03;;;1.70;;
22160;SDS011;49035;48.812;11.762;2023-07-16T07:16:12;2.70;;;1.77;;
22160;SDS011;49035;48.812;11.762;2023-07-16T07:18:38;3.70;;;1.50;;
22160;SDS011;49035;48.812;11.762;2023-07-16T07:21:03;3.90;;;1.83;;
22160;SDS011;49035;48.812;11.762;2023-07-16T07:23:29;3.13;;;1.67;;
22160;SDS011;49035;48.812;11.762;2023-07-16T07:25:54;2.63;;;1.67;;
22160;SDS011;49035;48.812;11.762;2023-07-16T07:28:20;1.73;;;1.63;;
22160;SDS011;49035;48.812;11.762;2023-07-16T07:30:46;2.97;;;1.83;;
22160;SDS011;49035;48.812;11.762;2023-07-16T07:33:12;3.20;;;1.55;;
22160;SDS011;49035;48.812;11.762;2023-07-16T07:35:37;2.08;;;1.40;;
22160;SDS011;49035;48.812;11.762;2023-07-16T07:38:03;1.20;;;1.00;;
22160;SDS011;49035;48.812;11.762;2023-07-16T07:40:29;3.13;;;1.50;;
22160;SDS011;49035;48.812;11.762;2023-07-16T07:42:54;2.60;;;1.42;;
22160;SDS011;49035;48.812;11.762;2023-07-16T07:45:20;2.35;;;1.58;;
22160;SDS011;49035;48.812;11.762;2023-07-16T07:47:46;2.35;;;1.80;;
22160;SDS011;49035;48.812;11.762;2023-07-16T07:50:11;3.05;;;1.50;;
22160;SDS011;49035;48.812;11.762;2023-07-16T07:52:37;2.08;;;1.85;;
22160;SDS011;49035;48.812;11.762;2023-07-16T07:55:03;1.85;;;1.40;;
22160;SDS011;49035;48.812;11.762;2023-07-16T07:57:29;11.13;;;1.85;;
22160;SDS011;49035;48.812;11.762;2023-07-16T07:59:54;3.95;;;1.63;;
22160;SDS011;49035;48.812;11.762;2023-07-16T08:02:23;4.85;;;2.05;;
22160;SDS011;49035;48.812;11.762;2023-07-16T08:04:55;4.88;;;1.90;;
22160;SDS011;49035;48.812;11.762;2023-07-16T08:07:21;4.35;;;2.08;;
22160;SDS011;49035;48.812;11.762;2023-07-16T08:09:47;7.13;;;2.00;;
22160;SDS011;49035;48.812;11.762;2023-07-16T08:12:13;3.20;;;1.75;;
22160;SDS011;49035;48.812;11.762;2023-07-16T08:14:39;3.08;;;1.90;;
22160;SDS011;49035;48.812;11.762;2023-07-16T08:17:06;5.70;;;2.00;;
22160;SDS011;49035;48.812;11.762;2023-07-16T08:19:32;4.47;;;1.70;;
22160;SDS011;49035;48.812;11.762;2023-07-16T08:21:58;4.93;;;2.10;;
22160;SDS011;49035;48.812;11.762;2023-07-16T08:24:24;3.83;;;1.80;;
22160;SDS011;49035;48.812;11.762;2023-07-16T08:26:50;6.70;;;2.00;;
22160;SDS011;49035;48.812;11.762;2023-07-16T08:29:16;5.47;;;2.03;;
22160;SDS011;49035;48.812;11.762;2023-07-16T08:31:41;3.88;;;1.88;;
22160;SDS011;49035;48.812;11.762;2023-07-16T08:34:07;7.82;;;2.70;;
22160;SDS011;49035;48.812;11.762;2023-07-16T08:36:32;5.93;;;2.40;;
22160;SDS011;49035;48.812;11.762;2023-07-16T08:38:58;7.40;;;2.13;;
22160;SDS011;49035;48.812;11.762;2023-07-16T08:41:24;5.85;;;2.08;;
22160;SDS011;49035;48.812;11.762;2023-07-16T08:43:50;5.43;;;2.30;;
22160;SDS011;49035;48.812;11.762;2023-07-16T08:46:16;5.13;;;2.03;;
22160;SDS011;49035;48.812;11.762;2023-07-16T08:48:42;3.20;;;1.70;;
22160;SDS011;49035;48.812;11.762;2023-07-16T08:51:09;2.75;;;1.55;;
22160;SDS011;49035;48.812;11.762;2023-07-16T08:53:36;3.30;;;1.85;;
22160;SDS011;49035;48.812;11.762;2023-07-16T08:56:02;7.90;;;2.20;;
22160;SDS011;49035;48.812;11.762;2023-07-16T08:58:30;3.95;;;2.17;;
22160;SDS011;49035;48.812;11.762;2023-07-16T09:00:56;2.78;;;1.80;;
22160;SDS011;49035;48.812;11.762;2023-07-16T09:03:23;3.75;;;1.90;;
22160;SDS011;49035;48.812;11.762;2023-07-16T09:05:48;2.75;;;1.55;;
22160;SDS011;49035;48.812;11.762;2023-07-16T09:08:14;6.97;;;1.85;;
22160;SDS011;49035;48.812;11.762;2023-07-16T09:10:40;4.95;;;1.50;;
22160;SDS011;49035;48.812;11.762;2023-07-16T09:13:06;5.88;;;2.13;;
22160;SDS011;49035;48.812;11.762;2023-07-16T09:15:32;1.67;;;1.27;;
22160;SDS011;49035;48.812;11.762;2023-07-16T09:17:59;2.17;;;1.10;;
22160;SDS011;49035;48.812;11.762;2023-07-16T09:20:25;1.67;;;1.15;;
22160;SDS011;49035;48.812;11.762;2023-07-16T09:22:55;2.13;;;1.38;;
22160;SDS011;49035;48.812;11.762;2023-07-16T09:25:28;3.35;;;1.40;;
22160;SDS011;49035;48.812;11.762;2023-07-16T09:27:54;4.63;;;1.13;;
22160;SDS011;49035;48.812;11.762;2023-07-16T09:30:19;2.53;;;1.50;;
22160;SDS011;49035;48.812;11.762;2023-07-16T09:32:45;3.25;;;1.50;;
22160;SDS011;49035;48.812;11.762;2023-07-16T09:35:13;1.75;;;1.38;;
22160;SDS011;49035;48.812;11.762;2023-07-16T09:37:40;1.75;;;1.40;;
22160;SDS011;49035;48.812;11.762;2023-07-16T09:40:07;1.90;;;1.50;;
22160;SDS011;49035;48.812;11.762;2023-07-16T09:42:38;2.63;;;1.60;;
22160;SDS011;49035;48.812;11.762;2023-07-16T09:45:05;3.38;;;1.60;;
22160;SDS011;49035;48.812;11.762;2023-07-16T09:47:33;2.83;;;1.67;;
22160;SDS011;49035;48.812;11.762;2023-07-16T09:50:02;3.33;;;1.70;;
22160;SDS011;49035;48.812;11.762;2023-07-16T09:52:29;1.52;;;1.42;;
22160;SDS011;49035;48.812;11.762;2023-07-16T09:54:57;1.75;;;1.30;;
22160;SDS011;49035;48.812;11.762;2023-07-16T09:57:25;1.85;;;1.40;;
22160;SDS011;49035;48.812;11.762;2023-07-16T09:59:53;2.42;;;1.30;;
22160;SDS011;49035;48.812;11.762;2023-07-16T10:02:22;1.90;;;1.20;;
22160;SDS011;49035;48.812;11.762;2023-07-16T10:04:48;1.85;;;1.25;;
22160;SDS011;49035;48.812;11.762;2023-07-16T10:07:23;2.60;;;1.23;;
22160;SDS011;49035;48.812;11.762;2023-07-16T10:09:52;2.13;;;1.52;;
22160;SDS011;49035;48.812;11.762;2023-07-16T10:12:20;2.10;;;1.30;;
22160;SDS011;49035;48.812;11.762;2023-07-16T10:14:47;3.03;;;1.25;;
22160;SDS011;49035;48.812;11.762;2023-07-16T10:19:49;1.90;;;1.50;;
22160;SDS011;49035;48.812;11.762;2023-07-16T10:22:33;10.57;;;1.80;;
22160;SDS011;49035;48.812;11.762;2023-07-16T10:25:10;1.45;;;1.20;;
22160;SDS011;49035;48.812;11.762;2023-07-16T10:27:47;4.10;;;1.65;;
22160;SDS011;49035;48.812;11.762;2023-07-16T10:30:15;1.25;;;1.10;;
22160;SDS011;49035;48.812;11.762;2023-07-16T10:32:41;1.35;;;1.25;;
22160;SDS011;49035;48.812;11.762;2023-07-16T10:35:08;1.90;;;1.50;;
22160;SDS011;49035;48.812;11.762;2023-07-16T10:37:34;2.20;;;1.50;;
22160;SDS011;49035;48.812;11.762;2023-07-16T10:40:01;3.10;;;1.33;;
22160;SDS011;49035;48.812;11.762;2023-07-16T10:42:30;5.53;;;1.73;;
22160;SDS011;49035;48.812;11.762;2023-07-16T10:45:00;2.67;;;1.65;;
22160;SDS011;49035;48.812;11.762;2023-07-16T10:47:36;1.63;;;1.45;;
22160;SDS011;49035;48.812;11.762;2023-07-16T10:50:04;2.17;;;1.40;;
22160;SDS011;49035;48.812;11.762;2023-07-16T10:52:31;3.60;;;1.67;;
22160;SDS011;49035;48.812;11.762;2023-07-16T10:54:57;1.77;;;1.67;;
22160;SDS011;49035;48.812;11.762;2023-07-16T10:57:25;2.75;;;1.50;;
22160;SDS011;49035;48.812;11.762;2023-07-16T10:59:52;2.30;;;1.60;;
22160;SDS011;49035;48.812;11.762;2023-07-16T11:02:20;2.92;;;1.60;;
22160;SDS011;49035;48.812;11.762;2023-07-16T11:04:46;2.30;;;1.38;;
22160;SDS011;49035;48.812;11.762;2023-07-16T11:07:13;2.20;;;1.60;;
22160;SDS011;49035;48.812;11.762;2023-07-16T11:09:43;2.63;;;1.98;;
22160;SDS011;49035;48.812;11.762;2023-07-16T11:12:14;4.25;;;1.83;;
22160;SDS011;49035;48.812;11.762;2023-07-16T11:14:44;2.88;;;1.75;;
22160;SDS011;49035;48.812;11.762;2023-07-16T11:17:11;4.65;;;1.98;;
22160;SDS011;49035;48.812;11.762;2023-07-16T11:19:37;3.85;;;2.10;;
22160;SDS011;49035;48.812;11.762;2023-07-16T11:22:04;1.48;;;1.38;;
22160;SDS011;49035;48.812;11.762;2023-07-16T11:24:41;1.90;;;1.60;;
22160;SDS011;49035;48.812;11.762;2023-07-16T11:27:19;2.42;;;1.90;;
22160;SDS011;49035;48.812;11.762;2023-07-16T11:29:47;2.30;;;2.08;;
22160;SDS011;49035;48.812;11.762;2023-07-16T11:32:30;3.75;;;1.85;;
22160;SDS011;49035;48.812;11.762;2023-07-16T11:35:00;3.38;;;1.70;;
22160;SDS011;49035;48.812;11.762;2023-07-16T11:37:31;3.25;;;2.13;;
22160;SDS011;49035;48.812;11.762;2023-07-16T11:39:58;3.95;;;2.28;;
22160;SDS011;49035;48.812;11.762;2023-07-16T11:42:32;3.55;;;1.95;;
22160;SDS011;49035;48.812;11.762;2023-07-16T11:44:59;2.53;;;2.13;;
22160;SDS011;49035;48.812;11.762;2023-07-16T11:47:26;3.45;;;2.33;;
22160;SDS011;49035;48.812;11.762;2023-07-16T11:49:52;4.82;;;2.08;;
22160;SDS011;49035;48.812;11.762;2023-07-16T11:52:19;3.60;;;2.38;;
22160;SDS011;49035;48.812;11.762;2023-07-16T11:54:54;4.82;;;2.00;;
22160;SDS011;49035;48.812;11.762;2023-07-16T11:57:21;4.15;;;1.98;;
22160;SDS011;49035;48.812;11.762;2023-07-16T11:59:47;3.20;;;2.28;;
22160;SDS011;49035;48.812;11.762;2023-07-16T12:02:13;4.50;;;2.63;;
22160;SDS011;49035;48.812;11.762;2023-07-16T12:04:39;2.85;;;2.50;;
22160;SDS011;49035;48.812;11.762;2023-07-16T12:07:05;2.47;;;2.20;;
22160;SDS011;49035;48.812;11.762;2023-07-16T12:09:30;2.72;;;2.22;;
22160;SDS011;49035;48.812;11.762;2023-07-16T12:11:56;4.57;;;2.53;;
22160;SDS011;49035;48.812;11.762;2023-07-16T12:14:22;2.72;;;2.40;;
22160;SDS011;49035;48.812;11.762;2023-07-16T12:16:47;2.70;;;2.50;;
22160;SDS011;49035;48.812;11.762;2023-07-16T12:19:13;2.25;;;2.10;;
22160;SDS011;49035;48.812;11.762;2023-07-16T12:21:39;3.67;;;2.10;;
22160;SDS011;49035;48.812;11.762;2023-07-16T12:24:04;3.42;;;2.25;;
22160;SDS011;49035;48.812;11.762;2023-07-16T12:26:30;5.40;;;2.00;;
22160;SDS011;49035;48.812;11.762;2023-07-16T12:28:56;2.60;;;1.85;;
22160;SDS011;49035;48.812;11.762;2023-07-16T12:31:22;3.80;;;1.90;;
22160;SDS011;49035;48.812;11.762;2023-07-16T12:33:47;2.47;;;1.60;;
22160;SDS011;49035;48.812;11.762;2023-07-16T12:36:13;2.45;;;1.83;;
22160;SDS011;49035;48.812;11.762;2023-07-16T12:38:39;2.97;;;1.77;;
22160;SDS011;49035;48.812;11.762;2023-07-16T12:41:05;3.40;;;1.83;;
22160;SDS011;49035;48.812;11.762;2023-07-16T12:43:31;2.28;;;1.48;;
22160;SDS011;49035;48.812;11.762;2023-07-16T12:45:59;4.43;;;1.65;;
22160;SDS011;49035;48.812;11.762;2023-07-16T12:48:27;2.80;;;1.75;;
22160;SDS011;49035;48.812;11.762;2023-07-16T12:50:53;1.90;;;1.63;;
22160;SDS011;49035;48.812;11.762;2023-07-16T12:53:19;4.68;;;1.83;;
22160;SDS011;49035;48.812;11.762;2023-07-16T12:55:45;2.17;;;1.50;;
22160;SDS011;49035;48.812;11.762;2023-07-16T12:58:10;2.35;;;1.73;;
22160;SDS011;49035;48.812;11.762;2023-07-16T13:00:36;3.38;;;1.55;;
22160;SDS011;49035;48.812;11.762;2023-07-16T13:03:01;5.38;;;2.00;;
22160;SDS011;49035;48.812;11.762;2023-07-16T13:05:27;1.85;;;1.65;;
22160;SDS011;49035;48.812;11.762;2023-07-16T13:07:53;4.72;;;1.75;;
22160;SDS011;49035;48.812;11.762;2023-07-16T13:10:19;3.40;;;1.90;;
22160;SDS011;49035;48.812;11.762;2023-07-16T13:12:44;2.92;;;1.75;;
22160;SDS011;49035;48.812;11.762;2023-07-16T13:15:10;3.78;;;1.83;;
22160;SDS011;49035;48.812;11.762;2023-07-16T13:17:36;3.45;;;1.50;;
22160;SDS011;49035;48.812;11.762;2023-07-16T13:20:02;5.57;;;1.63;;
22160;SDS011;49035;48.812;11.762;2023-07-16T13:22:28;1.75;;;1.50;;
22160;SDS011;49035;48.812;11.762;2023-07-16T13:24:54;2.58;;;1.42;;
22160;SDS011;49035;48.812;11.762;2023-07-16T13:27:20;2.30;;;1.30;;
22160;SDS011;49035;48.812;11.762;2023-07-16T13:29:48;2.45;;;1.42;;
22160;SDS011;49035;48.812;11.762;2023-07-16T13:32:14;1.50;;;1.40;;
22160;SDS011;49035;48.812;11.762;2023-07-16T13:34:40;1.67;;;1.42;;
22160;SDS011;49035;48.812;11.762;2023-07-16T13:37:06;2.85;;;1.50;;
22160;SDS011;49035;48.812;11.762;2023-07-16T13:39:31;2.55;;;1.75;;
22160;SDS011;49035;48.812;11.762;2023-07-16T13:41:57;1.67;;;1.48;;
22160;SDS011;49035;48.812;11.762;2023-07-16T13:44:22;1.92;;;1.60;;
22160;SDS011;49035;48.812;11.762;2023-07-16T13:46:48;3.53;;;1.27;;
22160;SDS011;49035;48.812;11.762;2023-07-16T13:49:14;1.83;;;1.50;;
22160;SDS011;49035;48.812;11.762;2023-07-16T13:51:39;5.85;;;1.50;;
22160;SDS011;49035;48.812;11.762;2023-07-16T13:54:05;3.00;;;1.50;;
22160;SDS011;49035;48.812;11.762;2023-07-16T13:56:31;2.00;;;1.70;;
22160;SDS011;49035;48.812;11.762;2023-07-16T13:58:56;6.07;;;1.40;;
22160;SDS011;49035;48.812;11.762;2023-07-16T14:01:22;2.50;;;1.58;;
22160;SDS011;49035;48.812;11.762;2023-07-16T14:03:48;3.10;;;1.52;;
22160;SDS011;49035;48.812;11.762;2023-07-16T14:06:13;2.35;;;1.45;;
22160;SDS011;49035;48.812;11.762;2023-07-16T14:08:39;3.85;;;1.52;;
22160;SDS011;49035;48.812;11.762;2023-07-16T14:11:05;1.45;;;1.30;;
22160;SDS011;49035;48.812;11.762;2023-07-16T14:13:30;3.63;;;1.58;;
22160;SDS011;49035;48.812;11.762;2023-07-16T14:15:56;1.95;;;1.40;;
22160;SDS011;49035;48.812;11.762;2023-07-16T14:18:22;2.45;;;1.65;;
22160;SDS011;49035;48.812;11.762;2023-07-16T14:20:47;1.70;;;1.30;;
22160;SDS011;49035;48.812;11.762;2023-07-16T14:23:13;2.58;;;1.35;;
22160;SDS011;49035;48.812;11.762;2023-07-16T14:25:38;2.22;;;1.50;;
22160;SDS011;49035;48.812;11.762;2023-07-16T14:28:04;3.17;;;1.40;;
22160;SDS011;49035;48.812;11.762;2023-07-16T14:30:30;2.70;;;1.42;;
22160;SDS011;49035;48.812;11.762;2023-07-16T14:32:55;1.83;;;1.52;;
22160;SDS011;49035;48.812;11.762;2023-07-16T14:35:21;2.47;;;1.67;;